Terminal Aerodrome Forecast
Issued by NWS

Home | Current Version | Previous Version | Text Only | Print | Product List | Glossary On
Versions: 1 2 3 4 5 6 7 8 9 10 11 12 13 14 15 16
367
FTUS42 KFFC 272320
TAFRYY
TAF
KRYY 272320Z 2800/2824 11003KT P6SM FEW060
     FM281700 09005KT P6SM FEW050 SCT250
      AMD NOT SKED 2804/2812=

USA.gov is the U.S. government's official web portal to all federal, state and local government web resources and services.